This is the latest recevied weather packets stored in our database for station/object DH1FR-13. If no packets are shown the sender has not sent any weather packets the latest 10 day(s).
| Time | Temp. | Humidity | Pressure | Rain* | Wind** | Luminosity | Snow |
|---|---|---|---|---|---|---|---|
| 1788098400 | 23.89° C | 55% | 1016.6 hPa | 4.32 mm | 0 m/s | - | - |
| 1788097801 | 24.44° C | 54% | 1016.8 hPa | 4.32 mm | 0 m/s | - | - |
| 1788097202 | 25.56° C | 53% | 1016.6 hPa | 4.32 mm | 0 m/s | - | - |
| 1788096601 | 23.89° C | 54% | 1016.6 hPa | 4.32 mm | 0 m/s | - | - |
| 1788096002 | 24.44° C | 53% | 1016.9 hPa | 4.32 mm | 0 m/s | - | - |
| 1788095401 | 23.89° C | 54% | 1016.8 hPa | 4.32 mm | 0 m/s | - | - |
| 1788094800 | 23.89° C | 54% | 1016.5 hPa | 4.32 mm | 0 m/s | - | - |
| 1788094201 | 25° C | 52% | 1016.7 hPa | 4.32 mm | 0 m/s | - | - |
| 1788093600 | 23.89° C | 54% | 1016.6 hPa | 4.32 mm | 0 m/s | - | - |
| 1788093001 | 22.78° C | 56% | 1016.7 hPa | 4.32 mm | 0 m/s | - | - |
| 1788092401 | 22.78° C | 55% | 1016.6 hPa | 4.32 mm | 0 m/s | - | - |
| 1788091800 | 23.33° C | 54% | 1016.8 hPa | 4.32 mm | 0 m/s | - | - |
| 1788091201 | 22.78° C | 57% | 1016.7 hPa | 4.32 mm | 0 m/s | - | - |
| 1788090600 | 22.78° C | 57% | 1016.6 hPa | 4.32 mm | 0 m/s | - | - |
| 1788090002 | 22.78° C | 57% | 1016.5 hPa | 4.32 mm | 0 m/s | - | - |
| 1788089400 | 22.78° C | 55% | 1016.8 hPa | 4.32 mm | 0 m/s | - | - |
| 1788088800 | 23.33° C | 60% | 1016.6 hPa | 4.32 mm | 0 m/s | - | - |
| 1788088201 | 21.67° C | 63% | 1017 hPa | 4.32 mm | 0.45 m/s, 228° | - | - |
| 1788087600 | 21.11° C | 65% | 1016.9 hPa | 4.32 mm | 0.45 m/s, 236° | - | - |
| 1788087001 | 21.11° C | 63% | 1016.9 hPa | 4.32 mm | 0.45 m/s, 230° | - | - |
| 1788086401 | 21.11° C | 63% | 1016.8 hPa | 4.32 mm | 0.45 m/s, 207° | - | - |
| 1788085801 | 21.11° C | 62% | 1016.5 hPa | 4.32 mm | 0.45 m/s, 204° | - | - |
| 1788085200 | 21.11° C | 62% | 1016.7 hPa | 4.32 mm | 0.45 m/s, 234° | - | - |
| 1788084601 | 21.67° C | 65% | 1016.8 hPa | 4.32 mm | 0 m/s | - | - |
| 1788084000 | 21.11° C | 67% | 1016.6 hPa | 4.32 mm | 0 m/s | - | - |
* Rain latest hour (hover to see other rain measurements)
** Current wind speed in m/s (hover to see current wind gust speed)